Time;durP1;ratioP1;P1;durP2;ratioP2;P2;SDS_P1;SDS_P2;PMS_P1;PMS_P2;Temp;Humidity;BMP_temperature;BMP_pressure;BME280_temperature;BME280_humidity;BME280_pressure;Samples;Min_cycle;Max_cycle;Signal;HPM_P1;HPM_P2
2021/04/10 00:00:31;;;;;;;30.25;19.55;;;;;;;9.28;100.00;100646.72;5058774;28;20586;-78
2021/04/10 00:03:22;;;;;;;30.27;19.08;;;;;;;9.22;100.00;100645.28;5063695;28;20051;-78
2021/04/10 00:06:13;;;;;;;30.55;18.52;;;;;;;9.23;100.00;100638.97;5047978;28;20762;-79
2021/04/10 00:09:07;;;;;;;33.55;21.10;;;;;;;9.22;100.00;100639.91;5055689;28;20040;-78
2021/04/10 00:11:58;;;;;;;34.45;20.55;;;;;;;9.15;100.00;100638.56;5048819;28;20130;-78
2021/04/10 00:14:49;;;;;;;31.92;20.35;;;;;;;9.13;100.00;100644.97;5046778;28;20040;-79
2021/04/10 00:17:40;;;;;;;32.25;20.25;;;;;;;9.13;100.00;100645.84;5069364;28;20046;-78
2021/04/10 00:20:31;;;;;;;31.75;20.48;;;;;;;9.13;100.00;100647.66;5067855;28;20098;-77
2021/04/10 00:23:23;;;;;;;34.35;21.27;;;;;;;9.09;100.00;100656.78;5053851;28;20038;-78
2021/04/10 00:26:14;;;;;;;36.85;22.15;;;;;;;9.09;100.00;100657.66;5068067;28;20086;-78
2021/04/10 00:29:04;;;;;;;41.58;22.85;;;;;;;9.08;100.00;100665.78;5067620;28;20133;-78
2021/04/10 00:31:55;;;;;;;39.75;23.45;;;;;;;9.07;100.00;100658.72;5068202;28;20097;-77
2021/04/10 00:34:46;;;;;;;36.17;22.92;;;;;;;9.06;100.00;100659.66;5056175;28;20120;-77
2021/04/10 00:37:37;;;;;;;38.17;21.83;;;;;;;9.07;100.00;100656.91;5048637;28;20396;-78
2021/04/10 00:40:28;;;;;;;39.58;22.88;;;;;;;9.08;100.00;100650.56;5045675;28;20405;-79
2021/04/10 00:43:19;;;;;;;35.45;21.30;;;;;;;9.11;100.00;100650.41;5041004;28;20043;-78
2021/04/10 00:46:10;;;;;;;36.80;20.88;;;;;;;9.14;100.00;100649.34;5047758;28;20122;-78
2021/04/10 00:49:01;;;;;;;32.83;20.00;;;;;;;9.10;100.00;100653.16;5071543;28;20569;-77
2021/04/10 00:51:53;;;;;;;36.80;22.17;;;;;;;9.08;100.00;100647.03;5077483;28;20046;-78
2021/04/10 00:54:47;;;;;;;37.33;22.80;;;;;;;9.06;100.00;100654.31;5065877;28;20120;-78
2021/04/10 00:57:38;;;;;;;33.42;22.52;;;;;;;9.03;100.00;100651.81;5074576;28;20031;-78
2021/04/10 01:00:29;;;;;;;34.85;21.08;;;;;;;9.05;100.00;100655.25;5054636;28;20133;-78
2021/04/10 01:03:21;;;;;;;35.92;21.30;;;;;;;9.07;100.00;100653.38;5061445;28;20035;-78
2021/04/10 01:06:12;;;;;;;34.58;21.73;;;;;;;9.09;100.00;100656.78;5060215;28;20885;-78
2021/04/10 01:09:03;;;;;;;38.03;21.70;;;;;;;9.10;100.00;100645.13;5072653;28;20070;-77
2021/04/10 01:12:30;;;;;;;36.28;21.95;;;;;;;9.11;100.00;100644.19;5052184;28;20071;-78
2021/04/10 01:15:21;;;;;;;37.65;22.30;;;;;;;9.09;100.00;100636.25;5051854;28;20181;-78
2021/04/10 01:18:20;;;;;;;38.30;23.38;;;;;;;9.07;100.00;100631.94;5049692;28;20044;-78
2021/04/10 01:21:16;;;;;;;38.85;21.80;;;;;;;9.07;100.00;100634.63;5040400;28;20124;-78
2021/04/10 01:24:21;;;;;;;40.78;24.75;;;;;;;9.09;100.00;100638.06;5068708;28;20070;-78
2021/04/10 01:27:40;;;;;;;37.80;22.25;;;;;;;9.09;100.00;100635.38;5069068;28;20051;-79
2021/04/10 01:30:33;;;;;;;37.10;23.05;;;;;;;9.09;100.00;100646.09;5052175;28;20676;-78
2021/04/10 01:33:29;;;;;;;40.47;23.23;;;;;;;9.06;100.00;100655.19;5058575;28;20047;-78
2021/04/10 01:37:10;;;;;;;39.58;22.35;;;;;;;9.05;100.00;100647.22;5076164;28;20562;-78
2021/04/10 01:40:50;;;;;;;35.83;21.95;;;;;;;9.05;100.00;100640.06;5066084;28;20036;-78
2021/04/10 01:44:31;;;;;;;39.97;23.40;;;;;;;9.01;100.00;100625.13;5052742;28;20051;-78
2021/04/10 01:48:14;;;;;;;41.63;23.35;;;;;;;8.95;100.00;100628.16;5064248;28;20055;-78
2021/04/10 01:51:55;;;;;;;40.67;23.05;;;;;;;8.90;100.00;100636.47;5046027;28;20711;-78
2021/04/10 01:55:36;;;;;;;42.00;23.08;;;;;;;8.90;100.00;100649.84;5069637;28;20204;-78
2021/04/10 01:59:16;;;;;;;40.55;23.25;;;;;;;8.89;100.00;100650.78;5065890;28;20090;-79
2021/04/10 02:02:56;;;;;;;39.80;23.48;;;;;;;8.87;100.00;100642.00;5071601;28;20134;-78
2021/04/10 02:06:36;;;;;;;38.58;23.10;;;;;;;8.83;100.00;100635.09;5071698;28;20102;-77
2021/04/10 02:10:17;;;;;;;39.80;23.70;;;;;;;8.78;100.00;100634.50;5066693;28;20120;-78
2021/04/10 02:13:57;;;;;;;33.33;20.90;;;;;;;8.65;100.00;100622.78;5049880;28;20114;-77
2021/04/10 02:17:38;;;;;;;33.20;20.48;;;;;;;8.61;100.00;100629.28;5072830;28;20384;-79
2021/04/10 02:21:25;;;;;;;36.28;20.02;;;;;;;8.64;100.00;100630.91;5049255;28;20043;-78
2021/04/10 02:25:05;;;;;;;34.03;20.08;;;;;;;8.64;100.00;100631.75;5064987;28;20116;-78
2021/04/10 02:28:46;;;;;;;33.03;19.88;;;;;;;8.67;100.00;100642.31;5070303;28;20404;-78
2021/04/10 02:32:28;;;;;;;37.28;22.33;;;;;;;8.68;100.00;100641.34;5071552;28;20569;-78
2021/04/10 02:36:08;;;;;;;33.88;21.13;;;;;;;8.69;100.00;100648.44;5048670;28;20089;-78
2021/04/10 02:39:49;;;;;;;40.42;23.50;;;;;;;8.69;100.00;100651.13;5064321;28;20044;-77
2021/04/10 02:43:29;;;;;;;40.13;22.40;;;;;;;8.68;100.00;100652.06;5070756;28;20135;-78
2021/04/10 02:47:12;;;;;;;40.03;23.92;;;;;;;8.70;100.00;100649.31;5054860;28;20043;-77
2021/04/10 02:50:52;;;;;;;41.65;23.35;;;;;;;8.69;100.00;100648.44;5058586;28;20086;-77
2021/04/10 02:54:32;;;;;;;47.25;25.60;;;;;;;8.70;100.00;100654.66;5063430;28;20047;-78
2021/04/10 02:58:13;;;;;;;45.33;24.80;;;;;;;8.68;100.00;100657.41;5068554;28;20278;-77
2021/04/10 03:01:54;;;;;;;45.50;24.80;;;;;;;8.66;100.00;100656.63;5070339;28;20128;-79
2021/04/10 03:05:35;;;;;;;47.42;24.20;;;;;;;8.64;100.00;100657.69;5044255;28;20048;-77
2021/04/10 03:09:16;;;;;;;45.40;26.17;;;;;;;8.62;100.00;100672.94;5068295;28;20074;-78
2021/04/10 03:12:57;;;;;;;41.05;24.30;;;;;;;8.63;100.00;100669.31;5065586;28;20043;-77
2021/04/10 04:57:02;;;;;;;36.40;21.30;;;;;;;7.88;100.00;100700.19;5070859;28;20175;-76
2021/04/10 04:59:27;;;;;;;37.80;22.60;;;;;;;7.86;100.00;100699.38;5042529;28;20045;-72
2021/04/10 05:01:52;;;;;;;36.03;20.75;;;;;;;7.88;100.00;100710.00;5020831;28;20034;-72
2021/04/10 05:04:18;;;;;;;36.08;20.75;;;;;;;7.88;100.00;100715.34;5013154;28;20128;-72
2021/04/10 05:06:43;;;;;;;32.25;19.85;;;;;;;7.87;100.00;100722.50;5013224;28;20124;-72
2021/04/10 05:09:08;;;;;;;35.30;21.88;;;;;;;7.88;100.00;100724.22;5067406;28;20071;-72
2021/04/10 05:11:34;;;;;;;38.38;22.75;;;;;;;7.87;100.00;100726.97;5037396;28;20124;-72
2021/04/10 05:14:00;;;;;;;37.33;23.33;;;;;;;7.84;100.00;100733.34;5038305;28;20045;-69
2021/04/10 05:16:25;;;;;;;39.55;22.58;;;;;;;7.82;100.00;100745.94;5041069;28;20127;-70
2021/04/10 05:18:51;;;;;;;40.70;21.92;;;;;;;7.79;100.00;100746.06;5033896;28;20045;-69
2021/04/10 05:21:16;;;;;;;42.35;23.40;;;;;;;7.79;100.00;100746.06;5037949;28;20488;-69
2021/04/10 05:23:41;;;;;;;49.47;23.63;;;;;;;7.76;100.00;100746.25;5031601;28;20037;-69
2021/04/10 05:26:07;;;;;;;39.40;22.95;;;;;;;7.75;100.00;100760.56;5041354;28;20083;-69
2021/04/10 05:28:32;;;;;;;38.60;22.05;;;;;;;7.76;100.00;100756.94;5031987;28;20064;-69
2021/04/10 05:31:01;;;;;;;34.45;21.95;;;;;;;7.76;100.00;100756.06;5040054;28;20056;-69
2021/04/10 05:33:31;;;;;;;38.72;22.08;;;;;;;7.73;100.00;100757.09;5041380;28;20116;-69
2021/04/10 05:35:57;;;;;;;33.83;21.48;;;;;;;7.76;100.00;100762.28;5041592;28;20515;-72
2021/04/10 05:38:23;;;;;;;43.70;22.35;;;;;;;7.78;100.00;100763.03;5066141;28;20042;-72
2021/04/10 05:40:48;;;;;;;39.72;22.38;;;;;;;7.78;100.00;100757.72;5031075;28;20037;-72
2021/04/10 05:43:13;;;;;;;42.10;23.65;;;;;;;7.83;100.00;100758.34;5033011;28;20029;-72
2021/04/10 05:45:39;;;;;;;41.42;21.83;;;;;;;7.88;100.00;100755.44;5036440;28;20511;-72
2021/04/10 05:48:05;;;;;;;41.05;22.90;;;;;;;7.86;100.00;100760.84;5037586;28;20032;-72
2021/04/10 05:50:30;;;;;;;35.92;21.48;;;;;;;7.85;100.00;100764.47;5036625;28;20043;-72
2021/04/10 05:52:55;;;;;;;36.38;21.52;;;;;;;7.83;100.00;100760.16;5041417;28;20037;-72
2021/04/10 05:55:21;;;;;;;37.20;20.60;;;;;;;7.84;100.00;100760.06;5043655;28;20388;-72
2021/04/10 05:57:46;;;;;;;33.85;22.17;;;;;;;7.87;100.00;100770.59;5033434;28;20033;-72
2021/04/10 06:00:12;;;;;;;38.88;21.27;;;;;;;7.91;100.00;100772.16;5036223;28;20455;-71
2021/04/10 06:02:38;;;;;;;37.00;21.85;;;;;;;7.94;100.00;100780.03;5042978;28;20041;-71
2021/04/10 06:05:04;;;;;;;37.55;22.67;;;;;;;7.98;100.00;100778.06;5043100;28;20044;-72
2021/04/10 06:07:30;;;;;;;36.30;22.70;;;;;;;8.00;100.00;100785.06;5035540;28;20033;-69
2021/04/10 06:09:55;;;;;;;41.28;23.80;;;;;;;8.04;100.00;100786.59;5035429;28;20421;-69
2021/04/10 06:12:20;;;;;;;42.95;23.33;;;;;;;8.08;100.00;100779.31;5040230;28;20040;-69
2021/04/10 06:14:46;;;;;;;40.10;23.27;;;;;;;8.11;100.00;100777.31;5040422;28;20032;-69
2021/04/10 06:17:12;;;;;;;42.22;22.60;;;;;;;8.13;100.00;100783.47;5040697;28;20145;-69
2021/04/10 06:19:37;;;;;;;41.83;22.05;;;;;;;8.19;100.00;100784.94;5040736;28;20017;-69
2021/04/10 06:22:03;;;;;;;41.20;23.38;;;;;;;8.21;100.00;100790.22;5036817;28;20611;-69
2021/04/10 06:24:28;;;;;;;44.15;23.13;;;;;;;8.23;100.00;100789.16;5039736;28;20037;-69
2021/04/10 06:26:53;;;;;;;45.42;21.40;;;;;;;8.26;100.00;100791.69;5037270;28;20040;-69
2021/04/10 06:29:19;;;;;;;41.58;22.48;;;;;;;8.28;100.00;100787.09;5040235;28;20548;-69
2021/04/10 06:31:44;;;;;;;41.83;22.23;;;;;;;8.30;100.00;100795.06;5036804;28;20032;-70
2021/04/10 06:34:10;;;;;;;43.45;22.70;;;;;;;8.33;100.00;100794.94;5037928;28;20033;-69
2021/04/10 06:36:36;;;;;;;41.40;22.13;;;;;;;8.38;100.00;100795.56;5032646;28;20103;-69
2021/04/10 06:39:03;;;;;;;41.53;22.27;;;;;;;8.39;100.00;100799.97;5033981;28;20095;-69
2021/04/10 06:41:28;;;;;;;39.80;22.30;;;;;;;8.48;100.00;100799.44;5031807;28;20375;-69
2021/04/10 06:43:54;;;;;;;41.25;22.40;;;;;;;8.44;100.00;100795.22;5032196;28;20076;-70
2021/04/10 06:46:22;;;;;;;41.90;24.45;;;;;;;8.49;100.00;100793.16;5028538;28;20041;-69
2021/04/10 06:48:51;;;;;;;41.60;23.48;;;;;;;8.52;100.00;100790.28;5031366;28;20036;-69
2021/04/10 06:51:16;;;;;;;40.08;23.98;;;;;;;8.55;100.00;100789.28;5063476;28;20040;-69
2021/04/10 06:53:44;;;;;;;47.22;24.90;;;;;;;8.58;100.00;100789.97;5030397;28;20104;-69
2021/04/10 06:56:16;;;;;;;50.58;25.23;;;;;;;8.69;100.00;100798.28;5036858;28;20039;-69
2021/04/10 06:59:14;;;;;;;48.07;24.57;;;;;;;8.72;100.00;100797.22;5031142;28;20040;-69
2021/04/10 07:01:40;;;;;;;41.42;24.30;;;;;;;8.76;100.00;100801.50;5031893;28;20471;-69
2021/04/10 07:04:05;;;;;;;45.03;23.75;;;;;;;8.86;100.00;100800.00;5041946;28;20160;-69
2021/04/10 07:06:31;;;;;;;38.45;23.33;;;;;;;8.88;100.00;100799.00;5028036;28;20022;-70
2021/04/10 07:08:58;;;;;;;53.92;26.60;;;;;;;9.04;100.00;100798.09;5031569;28;20311;-69
2021/04/10 07:11:24;;;;;;;57.25;28.23;;;;;;;9.09;100.00;100809.41;5031407;28;20045;-72
2021/04/10 07:13:49;;;;;;;39.83;22.88;;;;;;;9.12;100.00;100809.25;5034654;28;20095;-70
2021/04/10 07:16:14;;;;;;;41.42;22.85;;;;;;;9.11;100.00;100803.03;5033583;28;20037;-69
2021/04/10 07:18:40;;;;;;;40.85;23.75;;;;;;;9.13;100.00;100809.19;5036002;28;20040;-69
2021/04/10 07:21:19;;;;;;;44.03;24.50;;;;;;;9.18;100.00;100812.44;5037299;28;20045;-69
2021/04/10 07:23:46;;;;;;;43.70;24.05;;;;;;;9.30;100.00;100814.44;5025893;28;20033;-70
2021/04/10 07:26:12;;;;;;;42.97;24.10;;;;;;;9.24;100.00;100817.47;5032897;28;20040;-69
2021/04/10 07:28:38;;;;;;;45.50;24.90;;;;;;;9.38;100.00;100819.31;5035310;28;20029;-69
2021/04/10 07:31:05;;;;;;;46.30;24.27;;;;;;;9.47;100.00;100824.16;5030508;28;20037;-69
2021/04/10 07:33:33;;;;;;;42.42;23.80;;;;;;;9.52;100.00;100823.88;5031120;28;20390;-69
2021/04/10 07:36:00;;;;;;;43.35;23.55;;;;;;;9.55;100.00;100818.38;5029253;28;20065;-70
2021/04/10 07:38:30;;;;;;;40.50;23.40;;;;;;;9.70;100.00;100828.16;5029206;28;20428;-70
2021/04/10 07:40:57;;;;;;;41.70;24.83;;;;;;;9.69;100.00;100819.25;5029764;28;20034;-69
2021/04/10 07:43:31;;;;;;;42.40;24.65;;;;;;;9.67;100.00;100821.19;5033471;28;20033;-69
2021/04/10 07:46:14;;;;;;;47.30;27.00;;;;;;;9.77;100.00;100821.50;5040636;28;20034;-70
2021/04/10 07:48:57;;;;;;;;;;;;;;;9.85;100.00;100823.72;5032881;28;20026;-69
2021/04/10 07:51:22;;;;;;;46.63;24.45;;;;;;;9.96;99.50;100826.63;5062714;28;19920;-69
2021/04/10 07:53:48;;;;;;;47.65;27.10;;;;;;;10.01;99.43;100821.84;5031482;28;20056;-69
2021/04/10 07:56:13;;;;;;;40.33;24.17;;;;;;;10.14;99.29;100822.81;5068101;28;20640;-70
2021/04/10 07:58:39;;;;;;;45.03;24.50;;;;;;;10.20;98.33;100819.81;5035655;28;20033;-69
2021/04/10 08:01:09;;;;;;;43.28;25.50;;;;;;;10.35;97.42;100821.56;5033592;28;20033;-69
2021/04/10 08:03:40;;;;;;;44.17;26.13;;;;;;;10.40;96.83;100822.13;5028402;28;20044;-70
2021/04/10 08:06:05;;;;;;;48.00;26.85;;;;;;;10.46;96.98;100827.13;5013583;28;20033;-70
2021/04/10 08:08:33;;;;;;;46.55;28.08;;;;;;;10.54;96.84;100829.34;5034865;28;20104;-69
2021/04/10 08:11:05;;;;;;;39.72;25.00;;;;;;;10.57;96.94;100830.94;5039860;28;20111;-69
2021/04/10 08:13:32;;;;;;;46.42;25.98;;;;;;;10.62;97.29;100837.75;5027812;28;20029;-72
2021/04/10 08:16:14;;;;;;;45.08;25.55;;;;;;;10.74;97.10;100836.13;5036232;28;20028;-72
2021/04/10 08:18:47;;;;;;;43.88;24.80;;;;;;;10.76;97.42;100829.69;5031117;28;20029;-70
2021/04/10 08:21:15;;;;;;;42.95;25.80;;;;;;;10.81;97.80;100821.34;5036497;28;20624;-70
2021/04/10 08:23:40;;;;;;;45.40;26.25;;;;;;;10.84;98.33;100834.59;5039670;28;20033;-70
2021/04/10 08:26:06;;;;;;;56.42;27.15;;;;;;;10.89;96.20;100829.78;5028405;28;20393;-70
2021/04/10 08:28:31;;;;;;;44.17;25.67;;;;;;;10.92;96.54;100827.75;5033147;28;20025;-70
2021/04/10 08:30:58;;;;;;;46.17;27.38;;;;;;;10.87;96.54;100837.06;5033802;28;20052;-70
2021/04/10 08:33:26;;;;;;;43.58;25.30;;;;;;;11.12;96.74;100834.53;5034862;28;20032;-70
2021/04/10 08:35:54;;;;;;;39.88;25.95;;;;;;;11.17;97.41;100834.25;5033241;28;20414;-70
2021/04/10 08:38:22;;;;;;;45.92;26.23;;;;;;;11.30;96.51;100841.41;5036556;28;20047;-72
2021/04/10 08:40:51;;;;;;;47.25;27.65;;;;;;;11.41;94.44;100842.53;5029011;28;20133;-72
2021/04/10 08:43:18;;;;;;;45.20;26.13;;;;;;;11.43;94.24;100835.22;5013438;28;20028;-72
2021/04/10 08:45:50;;;;;;;41.50;26.30;;;;;;;11.41;95.28;100837.16;5029692;28;20057;-70
2021/04/10 08:48:19;;;;;;;44.00;25.70;;;;;;;11.38;96.26;100838.22;5033501;28;20036;-70
2021/04/10 08:50:45;;;;;;;45.20;25.50;;;;;;;11.46;97.08;100837.72;5013885;28;20028;-70
2021/04/10 08:53:17;;;;;;;37.97;26.00;;;;;;;11.61;94.64;100836.69;5031221;28;20032;-70
2021/04/10 08:55:43;;;;;;;39.43;25.53;;;;;;;11.72;94.41;100836.84;5033443;28;20588;-70
2021/04/10 08:58:29;;;;;;;42.97;26.83;;;;;;;11.78;93.73;100836.47;5029169;28;20138;-70
2021/04/10 09:00:58;;;;;;;46.63;27.70;;;;;;;11.85;93.12;100843.13;5034101;28;20033;-73
2021/04/10 09:03:44;;;;;;;51.15;28.02;;;;;;;11.83;91.88;100845.09;5027834;28;20037;-70
2021/04/10 09:06:09;;;;;;;49.85;28.88;;;;;;;11.67;91.70;100839.81;5022405;28;20057;-70
2021/04/10 09:08:35;;;;;;;51.17;32.60;;;;;;;11.58;93.22;100840.47;5034962;28;20031;-70
2021/04/10 09:11:03;;;;;;;45.72;27.73;;;;;;;11.64;93.20;100839.19;5060014;28;20037;-71
2021/04/10 09:13:38;;;;;;;58.17;29.98;;;;;;;11.73;92.48;100838.53;5034414;28;20104;-73
2021/04/10 09:16:28;;;;;;;47.22;26.30;;;;;;;11.82;91.21;100840.66;5031428;28;20044;-70
2021/04/10 09:18:59;;;;;;;54.17;29.70;;;;;;;11.84;90.36;100836.06;5007979;28;20052;-70
2021/04/10 09:21:38;;;;;;;39.05;22.75;;;;;;;11.85;89.96;100843.13;5032006;28;20037;-70
2021/04/10 09:24:42;;;;;;;35.90;22.83;;;;;;;11.78;89.29;100847.22;5042433;28;20039;-70
2021/04/10 09:27:19;;;;;;;43.10;22.58;;;;;;;11.84;87.79;100848.63;5035628;28;20051;-70
2021/04/10 09:29:44;;;;;;;37.35;23.95;;;;;;;11.70;90.54;100845.00;5038157;28;20513;-73
2021/04/10 09:32:11;;;;;;;55.90;30.48;;;;;;;11.87;92.68;100841.22;5034266;28;20064;-73
2021/04/10 09:34:49;;;;;;;59.72;30.60;;;;;;;11.87;90.86;100853.78;5033070;28;20064;-70
2021/04/10 09:37:20;;;;;;;53.08;32.47;;;;;;;11.87;92.58;100851.09;5043496;28;20025;-71
2021/04/10 09:40:03;;;;;;;51.13;30.17;;;;;;;11.80;91.88;100839.91;5023904;28;20029;-71
2021/04/10 09:42:38;;;;;;;48.63;28.77;;;;;;;11.77;91.99;100844.63;5039097;28;20060;-73
2021/04/10 09:45:07;;;;;;;49.05;30.15;;;;;;;11.72;93.12;100848.47;5034015;28;20099;-70
2021/04/10 09:47:55;;;;;;;57.75;34.03;;;;;;;11.68;94.65;100838.88;5040084;28;20040;-73
2021/04/10 09:50:27;;;;;;;57.50;31.98;;;;;;;11.62;95.62;100841.09;5060727;28;20029;-73
2021/04/10 09:52:58;;;;;;;58.22;33.83;;;;;;;11.67;96.06;100833.59;5063285;28;20037;-73
2021/04/10 09:55:25;;;;;;;55.08;33.72;;;;;;;11.56;95.94;100833.44;5040407;28;20086;-70
2021/04/10 09:57:59;;;;;;;68.68;37.15;;;;;;;11.51;96.23;100843.66;5037113;28;20026;-70
2021/04/10 10:00:25;;;;;;;70.57;39.67;;;;;;;11.41;97.21;100837.16;5031712;28;20029;-73
2021/04/10 10:02:54;;;;;;;87.05;48.35;;;;;;;11.44;97.88;100837.81;5038246;28;20075;-70
2021/04/10 10:05:20;;;;;;;83.35;45.25;;;;;;;11.32;97.64;100842.16;5025787;28;20486;-70
2021/04/10 10:07:46;;;;;;;56.70;34.03;;;;;;;11.34;98.65;100831.31;5060377;28;20602;-70
2021/04/10 10:10:12;;;;;;;56.65;32.28;;;;;;;11.32;97.23;100833.25;5030786;28;20025;-70
2021/04/10 10:12:38;;;;;;;55.70;32.97;;;;;;;11.27;98.32;100835.38;5060251;28;20544;-70
2021/04/10 10:15:19;;;;;;;56.38;31.98;;;;;;;11.33;98.80;100830.47;5032784;28;20034;-70
2021/04/10 10:17:44;;;;;;;47.47;27.70;;;;;;;11.27;99.15;100832.69;5040302;28;20043;-70
2021/04/10 10:20:11;;;;;;;52.75;33.35;;;;;;;11.24;100.00;100824.81;5031858;28;20033;-70
2021/04/10 10:22:36;;;;;;;58.30;33.28;;;;;;;11.36;100.00;100824.88;5032471;28;20033;-70
2021/04/10 10:25:03;;;;;;;49.72;29.55;;;;;;;11.30;100.00;100822.59;5038075;28;20041;-70
2021/04/10 10:27:41;;;;;;;57.53;32.45;;;;;;;11.35;100.00;100823.16;5034869;28;20120;-70
2021/04/10 10:30:17;;;;;;;60.60;31.30;;;;;;;11.38;100.00;100827.47;5032224;28;20029;-70
2021/04/10 10:32:47;;;;;;;51.90;30.10;;;;;;;11.40;100.00;100819.31;5029195;28;20076;-70
2021/04/10 10:35:15;;;;;;;50.38;29.92;;;;;;;11.41;100.00;100821.03;5033948;28;20083;-73
2021/04/10 10:37:45;;;;;;;48.25;30.02;;;;;;;11.47;100.00;100815.25;5040218;28;20061;-73
2021/04/10 10:40:22;;;;;;;61.38;35.30;;;;;;;11.39;99.97;100817.56;5019058;28;20029;-73
2021/04/10 10:43:04;;;;;;;64.53;34.08;;;;;;;11.40;99.44;100803.19;5036221;28;20029;-73
2021/04/10 10:45:56;;;;;;;49.55;29.40;;;;;;;11.31;100.00;100801.94;5035516;28;20021;-73
2021/04/10 10:48:31;;;;;;;49.80;29.65;;;;;;;11.33;100.00;100800.91;5039077;28;20647;-73
2021/04/10 10:50:59;;;;;;;49.70;29.23;;;;;;;11.41;100.00;100794.16;5072635;28;20041;-72
2021/04/10 10:53:32;;;;;;;55.08;31.77;;;;;;;11.36;100.00;100798.00;5035725;28;20041;-73
2021/04/10 10:56:07;;;;;;;51.45;31.25;;;;;;;11.32;100.00;100799.16;5039073;28;20060;-70
2021/04/10 10:58:33;;;;;;;53.78;32.67;;;;;;;11.26;100.00;100786.13;5028279;28;20123;-70
2021/04/10 11:01:00;;;;;;;53.78;31.45;;;;;;;11.34;100.00;100793.69;5049948;28;20045;-73
2021/04/10 11:03:26;;;;;;;54.13;32.60;;;;;;;11.19;100.00;100792.00;5043400;28;20083;-71
2021/04/10 11:05:52;;;;;;;54.03;32.78;;;;;;;11.07;100.00;100782.94;5040287;28;20028;-72
2021/04/10 11:08:23;;;;;;;54.92;33.78;;;;;;;11.17;100.00;100781.34;5042897;28;20048;-71
2021/04/10 11:10:52;;;;;;;56.00;35.20;;;;;;;11.14;100.00;100770.81;5026532;28;20038;-70
2021/04/10 11:13:17;;;;;;;55.88;34.63;;;;;;;11.16;100.00;100768.91;5029502;28;20040;-70
2021/04/10 11:15:46;;;;;;;61.22;35.20;;;;;;;11.16;100.00;100768.91;5036915;28;20037;-70
2021/04/10 11:18:26;;;;;;;67.57;39.72;;;;;;;11.10;100.00;100757.72;5041306;28;20511;-70
2021/04/10 11:20:52;;;;;;;70.95;40.42;;;;;;;11.18;100.00;100756.22;5042035;28;20029;-73
2021/04/10 11:23:18;;;;;;;66.43;40.25;;;;;;;11.17;100.00;100753.66;5023943;28;20122;-72
2021/04/10 11:25:51;;;;;;;75.53;44.40;;;;;;;11.25;100.00;100749.47;5059103;28;20032;-70
2021/04/10 11:28:31;;;;;;;76.60;45.83;;;;;;;11.24;100.00;100753.13;5036024;28;20035;-70
2021/04/10 11:31:07;;;;;;;83.40;45.42;;;;;;;11.26;100.00;100751.22;5040692;28;20127;-71
2021/04/10 11:33:35;;;;;;;79.25;45.55;;;;;;;11.34;100.00;100748.03;5048955;28;20028;-72
2021/04/10 11:36:01;;;;;;;72.38;45.03;;;;;;;11.46;100.00;100743.63;5042093;28;20079;-72
2021/04/10 11:38:27;;;;;;;82.03;46.10;;;;;;;11.39;100.00;100742.31;5039910;28;20041;-69
2021/04/10 11:40:52;;;;;;;76.55;46.17;;;;;;;11.45;100.00;100736.53;5071622;28;20030;-70
2021/04/10 11:43:18;;;;;;;77.97;46.75;;;;;;;11.62;100.00;100737.09;5032272;28;20112;-71
2021/04/10 11:45:47;;;;;;;82.72;46.80;;;;;;;11.53;100.00;100726.13;5035580;28;20040;-70
2021/04/10 11:48:22;;;;;;;80.40;47.13;;;;;;;11.49;100.00;100733.53;5036653;28;20429;-70
2021/04/10 11:50:52;;;;;;;83.40;48.30;;;;;;;11.50;100.00;100735.25;5039783;28;20041;-73
2021/04/10 11:53:27;;;;;;;85.32;47.40;;;;;;;11.53;100.00;100739.56;5040280;28;20033;-70
2021/04/10 11:55:54;;;;;;;82.90;46.78;;;;;;;11.58;100.00;100726.69;5030609;28;20444;-71
2021/04/10 11:58:34;;;;;;;74.72;44.90;;;;;;;11.65;100.00;100722.59;5045402;28;20477;-70
2021/04/10 12:01:12;;;;;;;81.07;43.72;;;;;;;11.49;100.00;100717.41;5042255;28;20116;-70
2021/04/10 12:03:48;;;;;;;89.32;50.25;;;;;;;11.47;100.00;100719.34;5037910;28;20494;-71
2021/04/10 12:06:26;;;;;;;84.68;46.45;;;;;;;11.40;100.00;100709.13;5029461;28;20052;-72
2021/04/10 12:08:51;;;;;;;81.07;46.15;;;;;;;11.32;100.00;100710.50;5064892;28;20379;-70
2021/04/10 12:11:17;;;;;;;81.25;45.80;;;;;;;11.27;100.00;100695.66;5036069;28;20040;-70
2021/04/10 12:13:42;;;;;;;85.72;49.15;;;;;;;11.30;100.00;100695.41;5038750;28;20052;-69
2021/04/10 12:16:08;;;;;;;85.03;48.63;;;;;;;11.37;100.00;100696.72;5036916;28;20042;-70
2021/04/10 12:18:33;;;;;;;75.95;43.17;;;;;;;11.39;100.00;100689.44;5036295;28;20029;-70
2021/04/10 12:20:59;;;;;;;79.45;42.85;;;;;;;11.48;100.00;100685.28;5032144;28;20029;-70
2021/04/10 12:23:25;;;;;;;81.97;47.17;;;;;;;11.42;100.00;100685.69;5020479;28;20025;-69
2021/04/10 12:25:51;;;;;;;74.35;43.60;;;;;;;11.52;100.00;100687.63;5035117;28;20155;-70
2021/04/10 12:28:18;;;;;;;71.35;42.40;;;;;;;11.56;100.00;100686.44;5038372;28;20021;-70
2021/04/10 12:30:44;;;;;;;72.60;42.83;;;;;;;11.38;100.00;100676.97;5029863;28;20048;-70
2021/04/10 12:33:10;;;;;;;73.72;41.42;;;;;;;11.47;100.00;100680.84;5036751;28;20428;-70
2021/04/10 12:35:35;;;;;;;73.15;41.60;;;;;;;11.33;100.00;100679.97;5030602;28;20073;-69
2021/04/10 12:38:01;;;;;;;64.20;39.92;;;;;;;11.46;100.00;100679.13;5033937;28;20071;-70
2021/04/10 12:40:27;;;;;;;65.28;39.15;;;;;;;11.29;100.00;100672.22;5035332;28;20098;-70
2021/04/10 12:42:52;;;;;;;75.13;44.30;;;;;;;11.29;100.00;100675.75;5036922;28;20493;-70
2021/04/10 12:45:19;;;;;;;71.82;40.88;;;;;;;11.29;100.00;100667.69;5067507;28;20487;-70
2021/04/10 12:47:46;;;;;;;68.93;38.42;;;;;;;11.40;100.00;100668.81;5034026;28;20072;-70
2021/04/10 12:50:17;;;;;;;63.38;37.25;;;;;;;11.40;100.00;100660.75;5035316;28;20040;-70
2021/04/10 12:52:43;;;;;;;61.38;34.15;;;;;;;11.45;100.00;100666.66;5037293;28;20028;-70
2021/04/10 12:55:10;;;;;;;57.03;34.20;;;;;;;11.42;100.00;100665.03;5031199;28;20489;-71
2021/04/10 12:57:36;;;;;;;56.17;32.35;;;;;;;11.39;100.00;100653.63;5035525;28;20105;-71
2021/04/10 13:00:01;;;;;;;46.17;27.98;;;;;;;11.27;100.00;100658.88;5031090;28;20033;-70
2021/04/10 13:02:27;;;;;;;41.75;26.13;;;;;;;11.23;100.00;100656.53;5040605;28;20045;-70
2021/04/10 13:04:52;;;;;;;45.80;28.08;;;;;;;11.21;100.00;100651.25;5052220;28;20034;-70
2021/04/10 13:07:18;;;;;;;53.88;31.05;;;;;;;11.22;100.00;100650.28;5034729;28;20071;-71
2021/04/10 13:09:44;;;;;;;48.35;29.63;;;;;;;11.10;100.00;100656.50;5035608;28;20030;-70
2021/04/10 13:12:14;;;;;;;44.72;26.13;;;;;;;11.10;100.00;100653.81;5034334;28;20045;-70
2021/04/10 13:14:41;;;;;;;46.22;27.33;;;;;;;11.01;100.00;100640.97;5039963;28;20048;-69
2021/04/10 13:17:06;;;;;;;43.35;26.70;;;;;;;11.08;100.00;100636.06;5032343;28;20039;-70
2021/04/10 13:19:31;;;;;;;48.83;28.25;;;;;;;11.09;100.00;100638.66;5067296;28;20132;-70
2021/04/10 13:21:57;;;;;;;39.17;23.33;;;;;;;10.98;100.00;100641.22;5066112;28;20409;-70
2021/04/10 13:24:22;;;;;;;38.15;24.23;;;;;;;10.83;100.00;100634.16;5064846;28;20048;-69
2021/04/10 13:26:51;;;;;;;39.90;24.13;;;;;;;10.84;100.00;100628.69;5024787;28;20747;-70
2021/04/10 13:29:16;;;;;;;42.08;24.83;;;;;;;10.83;100.00;100620.72;5029353;28;20119;-71
2021/04/10 13:31:44;;;;;;;41.67;24.48;;;;;;;10.84;100.00;100612.59;5033585;28;20154;-70
2021/04/10 13:34:14;;;;;;;43.92;25.13;;;;;;;10.76;100.00;100617.59;5036337;28;20485;-73
2021/04/10 13:36:41;;;;;;;44.45;23.92;;;;;;;10.80;100.00;100619.09;5032254;28;20025;-72
2021/04/10 13:39:08;;;;;;;44.55;26.05;;;;;;;10.65;100.00;100616.59;5033961;28;20056;-73
2021/04/10 13:41:37;;;;;;;45.53;23.98;;;;;;;10.68;100.00;100605.63;5035776;28;20500;-70